sensor_id;sensor_type;location;lat;lon;timestamp;temperature;humidity
15821;DHT22;8011;51.650;7.240;2022-11-20T00:02:09;-1.00;99.90
15821;DHT22;8011;51.650;7.240;2022-11-20T00:04:35;-0.90;99.90
15821;DHT22;8011;51.650;7.240;2022-11-20T00:07:01;-1.00;99.90
15821;DHT22;8011;51.650;7.240;2022-11-20T00:09:26;-1.00;99.90
15821;DHT22;8011;51.650;7.240;2022-11-20T00:11:52;-1.10;99.90
15821;DHT22;8011;51.650;7.240;2022-11-20T00:14:18;-1.10;99.90
15821;DHT22;8011;51.650;7.240;2022-11-20T00:16:43;-1.20;99.90
15821;DHT22;8011;51.650;7.240;2022-11-20T00:19:09;-1.20;99.90
15821;DHT22;8011;51.650;7.240;2022-11-20T00:21:35;-1.10;99.90
15821;DHT22;8011;51.650;7.240;2022-11-20T00:24:01;-1.20;99.90
15821;DHT22;8011;51.650;7.240;2022-11-20T00:26:27;-1.20;99.90
15821;DHT22;8011;51.650;7.240;2022-11-20T00:28:58;-1.10;99.90
15821;DHT22;8011;51.650;7.240;2022-11-20T00:31:24;-1.20;99.90
15821;DHT22;8011;51.650;7.240;2022-11-20T00:33:50;-1.20;99.90
15821;DHT22;8011;51.650;7.240;2022-11-20T00:36:21;-1.20;99.90
15821;DHT22;8011;51.650;7.240;2022-11-20T00:38:51;-1.20;99.90
15821;DHT22;8011;51.650;7.240;2022-11-20T00:41:17;-1.20;99.90
15821;DHT22;8011;51.650;7.240;2022-11-20T00:43:43;-1.20;99.90
15821;DHT22;8011;51.650;7.240;2022-11-20T00:46:19;-1.30;99.90
15821;DHT22;8011;51.650;7.240;2022-11-20T00:48:46;-1.30;99.90
15821;DHT22;8011;51.650;7.240;2022-11-20T00:51:14;-1.30;99.90
15821;DHT22;8011;51.650;7.240;2022-11-20T00:53:40;-1.30;99.90
15821;DHT22;8011;51.650;7.240;2022-11-20T00:56:09;-1.40;99.90
15821;DHT22;8011;51.650;7.240;2022-11-20T00:58:36;-1.40;99.90
15821;DHT22;8011;51.650;7.240;2022-11-20T04:01:34;-2.10;99.90
15821;DHT22;8011;51.650;7.240;2022-11-20T04:04:01;-2.20;99.90
15821;DHT22;8011;51.650;7.240;2022-11-20T04:06:29;-2.20;99.90
15821;DHT22;8011;51.650;7.240;2022-11-20T04:08:56;-2.20;99.90
15821;DHT22;8011;51.650;7.240;2022-11-20T04:11:28;-2.20;99.90
15821;DHT22;8011;51.650;7.240;2022-11-20T04:13:59;-2.20;99.90
15821;DHT22;8011;51.650;7.240;2022-11-20T04:16:26;-2.10;99.90
15821;DHT22;8011;51.650;7.240;2022-11-20T04:18:55;-2.10;99.90
15821;DHT22;8011;51.650;7.240;2022-11-20T04:21:22;-2.20;99.90
15821;DHT22;8011;51.650;7.240;2022-11-20T04:23:49;-2.20;99.90
15821;DHT22;8011;51.650;7.240;2022-11-20T04:26:21;-2.20;99.90
15821;DHT22;8011;51.650;7.240;2022-11-20T04:28:47;-2.20;99.90
15821;DHT22;8011;51.650;7.240;2022-11-20T04:31:18;-2.30;99.90
15821;DHT22;8011;51.650;7.240;2022-11-20T04:33:44;-2.30;99.90
15821;DHT22;8011;51.650;7.240;2022-11-20T04:36:13;-2.20;99.90
15821;DHT22;8011;51.650;7.240;2022-11-20T04:38:39;-2.20;99.90
15821;DHT22;8011;51.650;7.240;2022-11-20T04:41:07;-2.30;99.90
15821;DHT22;8011;51.650;7.240;2022-11-20T04:43:33;-2.30;99.90
15821;DHT22;8011;51.650;7.240;2022-11-20T04:46:00;-2.20;99.90
15821;DHT22;8011;51.650;7.240;2022-11-20T04:48:27;-2.20;99.90
15821;DHT22;8011;51.650;7.240;2022-11-20T04:50:53;-2.20;99.90
15821;DHT22;8011;51.650;7.240;2022-11-20T04:53:20;-2.20;99.90
15821;DHT22;8011;51.650;7.240;2022-11-20T04:55:46;-2.30;99.90
15821;DHT22;8011;51.650;7.240;2022-11-20T04:58:12;-2.30;99.90
15821;DHT22;8011;51.650;7.240;2022-11-20T05:00:38;-2.30;99.90
15821;DHT22;8011;51.650;7.240;2022-11-20T05:03:04;-2.30;99.90
15821;DHT22;8011;51.650;7.240;2022-11-20T05:05:30;-2.40;99.90
15821;DHT22;8011;51.650;7.240;2022-11-20T05:07:59;-2.30;99.90
15821;DHT22;8011;51.650;7.240;2022-11-20T05:10:25;-2.30;99.90
15821;DHT22;8011;51.650;7.240;2022-11-20T05:12:51;-2.30;99.90
15821;DHT22;8011;51.650;7.240;2022-11-20T05:15:17;-2.30;99.90
15821;DHT22;8011;51.650;7.240;2022-11-20T05:17:50;-2.30;99.90
15821;DHT22;8011;51.650;7.240;2022-11-20T05:20:16;-2.30;99.90
15821;DHT22;8011;51.650;7.240;2022-11-20T05:22:42;-2.30;99.90
15821;DHT22;8011;51.650;7.240;2022-11-20T05:25:08;-2.30;99.90
15821;DHT22;8011;51.650;7.240;2022-11-20T05:27:34;-2.30;99.90
15821;DHT22;8011;51.650;7.240;2022-11-20T05:30:00;-2.30;99.90
15821;DHT22;8011;51.650;7.240;2022-11-20T05:32:25;-2.30;99.90
15821;DHT22;8011;51.650;7.240;2022-11-20T05:34:52;-2.40;99.90
15821;DHT22;8011;51.650;7.240;2022-11-20T05:37:17;-2.30;99.90
15821;DHT22;8011;51.650;7.240;2022-11-20T05:39:43;-2.40;99.90
15821;DHT22;8011;51.650;7.240;2022-11-20T05:42:09;-2.40;99.90
15821;DHT22;8011;51.650;7.240;2022-11-20T05:44:53;-2.40;99.90
15821;DHT22;8011;51.650;7.240;2022-11-20T05:47:19;-2.30;99.90
15821;DHT22;8011;51.650;7.240;2022-11-20T05:49:44;-2.30;99.90
15821;DHT22;8011;51.650;7.240;2022-11-20T05:52:12;-2.30;99.90
15821;DHT22;8011;51.650;7.240;2022-11-20T05:54:38;-2.30;99.90
15821;DHT22;8011;51.650;7.240;2022-11-20T05:57:04;-2.30;99.90
15821;DHT22;8011;51.650;7.240;2022-11-20T05:59:30;-2.30;99.90
15821;DHT22;8011;51.650;7.240;2022-11-20T06:01:55;-2.20;99.90
15821;DHT22;8011;51.650;7.240;2022-11-20T06:04:21;-2.20;99.90
15821;DHT22;8011;51.650;7.240;2022-11-20T06:06:47;-2.10;99.90
15821;DHT22;8011;51.650;7.240;2022-11-20T06:09:12;-2.10;99.90
15821;DHT22;8011;51.650;7.240;2022-11-20T06:11:38;-2.10;99.90
15821;DHT22;8011;51.650;7.240;2022-11-20T06:14:04;-2.10;99.90
15821;DHT22;8011;51.650;7.240;2022-11-20T06:16:30;-2.10;99.90
15821;DHT22;8011;51.650;7.240;2022-11-20T06:18:55;-2.10;99.90
15821;DHT22;8011;51.650;7.240;2022-11-20T06:21:22;-2.00;99.90
15821;DHT22;8011;51.650;7.240;2022-11-20T06:23:49;-2.00;99.90
15821;DHT22;8011;51.650;7.240;2022-11-20T06:26:21;-2.00;99.90
15821;DHT22;8011;51.650;7.240;2022-11-20T06:28:47;-1.90;99.90
15821;DHT22;8011;51.650;7.240;2022-11-20T06:31:14;-2.00;99.90
15821;DHT22;8011;51.650;7.240;2022-11-20T06:33:41;-2.00;99.90
15821;DHT22;8011;51.650;7.240;2022-11-20T06:36:07;-1.90;99.90
15821;DHT22;8011;51.650;7.240;2022-11-20T06:38:32;-1.90;99.90
15821;DHT22;8011;51.650;7.240;2022-11-20T06:40:58;-1.90;99.90
15821;DHT22;8011;51.650;7.240;2022-11-20T06:43:24;-2.00;99.90
15821;DHT22;8011;51.650;7.240;2022-11-20T06:45:54;-1.90;99.90
15821;DHT22;8011;51.650;7.240;2022-11-20T06:48:21;-1.90;99.90
15821;DHT22;8011;51.650;7.240;2022-11-20T06:50:47;-1.90;99.90
15821;DHT22;8011;51.650;7.240;2022-11-20T06:53:12;-1.90;99.90
15821;DHT22;8011;51.650;7.240;2022-11-20T06:55:45;-2.00;99.90
15821;DHT22;8011;51.650;7.240;2022-11-20T06:58:11;-1.90;99.90
15821;DHT22;8011;51.650;7.240;2022-11-20T07:00:37;-1.90;99.90
15821;DHT22;8011;51.650;7.240;2022-11-20T07:03:07;-1.90;99.90
15821;DHT22;8011;51.650;7.240;2022-11-20T07:05:34;-2.00;99.90
15821;DHT22;8011;51.650;7.240;2022-11-20T07:08:00;-2.00;99.90
15821;DHT22;8011;51.650;7.240;2022-11-20T07:10:26;-2.00;99.90
15821;DHT22;8011;51.650;7.240;2022-11-20T07:12:52;-2.00;99.90
15821;DHT22;8011;51.650;7.240;2022-11-20T07:15:20;-2.00;99.90
15821;DHT22;8011;51.650;7.240;2022-11-20T07:17:46;-1.90;99.90
15821;DHT22;8011;51.650;7.240;2022-11-20T07:20:13;-1.90;99.90
15821;DHT22;8011;51.650;7.240;2022-11-20T07:22:38;-1.90;99.90
15821;DHT22;8011;51.650;7.240;2022-11-20T07:25:05;-1.90;99.90
15821;DHT22;8011;51.650;7.240;2022-11-20T07:27:31;-1.90;99.90
15821;DHT22;8011;51.650;7.240;2022-11-20T07:29:57;-1.90;99.90
15821;DHT22;8011;51.650;7.240;2022-11-20T07:32:22;-1.90;99.90
15821;DHT22;8011;51.650;7.240;2022-11-20T07:34:48;-1.90;99.90
15821;DHT22;8011;51.650;7.240;2022-11-20T07:37:15;-2.00;99.90
15821;DHT22;8011;51.650;7.240;2022-11-20T07:39:41;-2.00;99.90
15821;DHT22;8011;51.650;7.240;2022-11-20T07:42:07;-2.00;99.90
15821;DHT22;8011;51.650;7.240;2022-11-20T07:44:33;-2.00;99.90
15821;DHT22;8011;51.650;7.240;2022-11-20T07:46:59;-2.00;99.90
15821;DHT22;8011;51.650;7.240;2022-11-20T07:49:24;-2.00;99.90
15821;DHT22;8011;51.650;7.240;2022-11-20T07:51:51;-1.90;99.90
15821;DHT22;8011;51.650;7.240;2022-11-20T07:54:18;-1.90;99.90
15821;DHT22;8011;51.650;7.240;2022-11-20T07:56:44;-1.90;99.90
15821;DHT22;8011;51.650;7.240;2022-11-20T07:59:10;-1.90;99.90
15821;DHT22;8011;51.650;7.240;2022-11-20T08:01:37;-1.90;99.90
15821;DHT22;8011;51.650;7.240;2022-11-20T08:04:03;-1.90;99.90
15821;DHT22;8011;51.650;7.240;2022-11-20T08:06:29;-1.90;99.90
15821;DHT22;8011;51.650;7.240;2022-11-20T08:08:54;-1.90;99.90
15821;DHT22;8011;51.650;7.240;2022-11-20T08:11:20;-1.80;99.90
15821;DHT22;8011;51.650;7.240;2022-11-20T08:14:04;-1.80;99.90
15821;DHT22;8011;51.650;7.240;2022-11-20T08:19:08;-1.80;99.90
15821;DHT22;8011;51.650;7.240;2022-11-20T08:21:34;-1.80;99.90
15821;DHT22;8011;51.650;7.240;2022-11-20T08:24:00;-1.70;99.90
15821;DHT22;8011;51.650;7.240;2022-11-20T08:26:26;-1.70;99.90
15821;DHT22;8011;51.650;7.240;2022-11-20T08:28:57;-1.70;99.90
15821;DHT22;8011;51.650;7.240;2022-11-20T08:31:25;-1.60;99.90
15821;DHT22;8011;51.650;7.240;2022-11-20T08:33:51;-1.70;99.90
15821;DHT22;8011;51.650;7.240;2022-11-20T08:36:18;-1.60;99.90
15821;DHT22;8011;51.650;7.240;2022-11-20T08:39:02;-1.60;99.90
15821;DHT22;8011;51.650;7.240;2022-11-20T08:41:29;-1.60;99.90
15821;DHT22;8011;51.650;7.240;2022-11-20T08:44:02;-1.50;99.90
15821;DHT22;8011;51.650;7.240;2022-11-20T08:46:36;-1.50;99.90
15821;DHT22;8011;51.650;7.240;2022-11-20T08:49:04;-1.50;99.90
15821;DHT22;8011;51.650;7.240;2022-11-20T08:51:30;-1.40;99.90
15821;DHT22;8011;51.650;7.240;2022-11-20T08:53:55;-1.40;99.90
15821;DHT22;8011;51.650;7.240;2022-11-20T08:56:21;-1.20;99.90
15821;DHT22;8011;51.650;7.240;2022-11-20T08:58:47;-1.10;99.90
15821;DHT22;8011;51.650;7.240;2022-11-20T09:01:12;-1.00;99.90
15821;DHT22;8011;51.650;7.240;2022-11-20T09:03:38;-0.90;99.90
15821;DHT22;8011;51.650;7.240;2022-11-20T09:06:06;-0.80;99.90
15821;DHT22;8011;51.650;7.240;2022-11-20T09:08:33;-0.80;99.90
15821;DHT22;8011;51.650;7.240;2022-11-20T09:10:59;-0.70;99.90
15821;DHT22;8011;51.650;7.240;2022-11-20T09:13:26;-0.60;99.90
15821;DHT22;8011;51.650;7.240;2022-11-20T09:16:12;-0.60;99.90
15821;DHT22;8011;51.650;7.240;2022-11-20T09:18:38;-0.50;99.90
15821;DHT22;8011;51.650;7.240;2022-11-20T09:21:09;-0.50;99.90
15821;DHT22;8011;51.650;7.240;2022-11-20T09:23:36;-0.50;99.90
15821;DHT22;8011;51.650;7.240;2022-11-20T09:26:07;-0.50;99.90
15821;DHT22;8011;51.650;7.240;2022-11-20T09:28:34;-0.40;99.90
15821;DHT22;8011;51.650;7.240;2022-11-20T09:30:59;-0.30;99.90
15821;DHT22;8011;51.650;7.240;2022-11-20T09:33:26;-0.30;99.90
15821;DHT22;8011;51.650;7.240;2022-11-20T09:36:17;-0.20;99.90
15821;DHT22;8011;51.650;7.240;2022-11-20T09:38:45;-0.20;99.90
15821;DHT22;8011;51.650;7.240;2022-11-20T09:44:51;-0.10;99.90
15821;DHT22;8011;51.650;7.240;2022-11-20T09:52:14;0.10;99.90
15821;DHT22;8011;51.650;7.240;2022-11-20T09:54:41;0.20;99.90
15821;DHT22;8011;51.650;7.240;2022-11-20T09:57:11;0.20;99.90
15821;DHT22;8011;51.650;7.240;2022-11-20T09:59:56;0.20;99.90
15821;DHT22;8011;51.650;7.240;2022-11-20T10:10:40;0.40;99.90
15821;DHT22;8011;51.650;7.240;2022-11-20T10:19:03;0.60;99.90
15821;DHT22;8011;51.650;7.240;2022-11-20T10:30:15;0.80;99.90
15821;DHT22;8011;51.650;7.240;2022-11-20T10:32:44;0.80;99.90
15821;DHT22;8011;51.650;7.240;2022-11-20T10:37:45;1.00;99.90
15821;DHT22;8011;51.650;7.240;2022-11-20T10:43:43;1.10;99.90
15821;DHT22;8011;51.650;7.240;2022-11-20T10:46:16;1.20;99.90
15821;DHT22;8011;51.650;7.240;2022-11-20T10:48:44;1.20;99.90
15821;DHT22;8011;51.650;7.240;2022-11-20T10:51:31;1.20;99.90
15821;DHT22;8011;51.650;7.240;2022-11-20T10:56:52;1.40;99.90
15821;DHT22;8011;51.650;7.240;2022-11-20T11:01:50;1.50;99.90
15821;DHT22;8011;51.650;7.240;2022-11-20T11:04:40;1.60;99.90
15821;DHT22;8011;51.650;7.240;2022-11-20T11:09:52;1.70;99.90
15821;DHT22;8011;51.650;7.240;2022-11-20T11:12:19;1.80;99.90
15821;DHT22;8011;51.650;7.240;2022-11-20T11:14:50;1.80;99.90
15821;DHT22;8011;51.650;7.240;2022-11-20T11:17:33;1.90;99.90
15821;DHT22;8011;51.650;7.240;2022-11-20T11:20:06;1.90;99.90
15821;DHT22;8011;51.650;7.240;2022-11-20T11:22:51;2.00;99.90
15821;DHT22;8011;51.650;7.240;2022-11-20T11:25:36;2.10;99.90
15821;DHT22;8011;51.650;7.240;2022-11-20T11:28:17;2.00;99.90
15821;DHT22;8011;51.650;7.240;2022-11-20T11:30:45;2.20;99.90
15821;DHT22;8011;51.650;7.240;2022-11-20T11:33:22;2.20;99.90
15821;DHT22;8011;51.650;7.240;2022-11-20T11:35:53;2.30;99.90
15821;DHT22;8011;51.650;7.240;2022-11-20T11:38:34;2.30;99.90
15821;DHT22;8011;51.650;7.240;2022-11-20T11:41:02;2.40;99.90
15821;DHT22;8011;51.650;7.240;2022-11-20T11:43:31;2.50;99.90
15821;DHT22;8011;51.650;7.240;2022-11-20T11:49:16;2.60;99.90
15821;DHT22;8011;51.650;7.240;2022-11-20T11:52:00;2.60;99.90
15821;DHT22;8011;51.650;7.240;2022-11-20T11:54:28;2.70;99.90
15821;DHT22;8011;51.650;7.240;2022-11-20T11:57:00;2.70;99.90
15821;DHT22;8011;51.650;7.240;2022-11-20T11:59:33;2.70;99.90
15821;DHT22;8011;51.650;7.240;2022-11-20T12:02:15;2.80;99.90
15821;DHT22;8011;51.650;7.240;2022-11-20T12:05:03;2.90;99.90
15821;DHT22;8011;51.650;7.240;2022-11-20T12:07:41;2.90;99.90
15821;DHT22;8011;51.650;7.240;2022-11-20T12:10:30;2.90;99.90
15821;DHT22;8011;51.650;7.240;2022-11-20T12:15:59;3.10;99.90
15821;DHT22;8011;51.650;7.240;2022-11-20T12:18:25;3.10;99.90
15821;DHT22;8011;51.650;7.240;2022-11-20T12:21:19;3.20;99.90
15821;DHT22;8011;51.650;7.240;2022-11-20T12:30:01;3.30;99.90
15821;DHT22;8011;51.650;7.240;2022-11-20T12:44:28;3.60;99.90
15821;DHT22;8011;51.650;7.240;2022-11-20T12:52:46;3.80;99.90
15821;DHT22;8011;51.650;7.240;2022-11-20T12:58:20;3.80;99.90
15821;DHT22;8011;51.650;7.240;2022-11-20T13:01:04;3.90;99.90
15821;DHT22;8011;51.650;7.240;2022-11-20T13:03:52;3.90;99.90
15821;DHT22;8011;51.650;7.240;2022-11-20T13:06:21;3.90;99.90
15821;DHT22;8011;51.650;7.240;2022-11-20T13:08:57;3.90;99.90
15821;DHT22;8011;51.650;7.240;2022-11-20T13:11:39;3.90;99.90
15821;DHT22;8011;51.650;7.240;2022-11-20T13:17:16;3.80;99.90
15821;DHT22;8011;51.650;7.240;2022-11-20T13:19:54;3.90;99.90
15821;DHT22;8011;51.650;7.240;2022-11-20T13:22:28;3.80;99.90
15821;DHT22;8011;51.650;7.240;2022-11-20T13:24:54;3.90;99.90
15821;DHT22;8011;51.650;7.240;2022-11-20T13:27:23;3.90;99.90
15821;DHT22;8011;51.650;7.240;2022-11-20T13:30:19;3.80;99.90
15821;DHT22;8011;51.650;7.240;2022-11-20T13:35:34;3.90;99.90
15821;DHT22;8011;51.650;7.240;2022-11-20T13:38:05;3.90;99.90
15821;DHT22;8011;51.650;7.240;2022-11-20T13:40:31;3.90;99.90
15821;DHT22;8011;51.650;7.240;2022-11-20T13:43:21;3.90;99.90
15821;DHT22;8011;51.650;7.240;2022-11-20T13:51:26;4.00;99.90
15821;DHT22;8011;51.650;7.240;2022-11-20T14:02:18;4.00;99.90
15821;DHT22;8011;51.650;7.240;2022-11-20T14:04:47;4.00;99.90
15821;DHT22;8011;51.650;7.240;2022-11-20T14:07:15;4.00;99.90
15821;DHT22;8011;51.650;7.240;2022-11-20T14:09:51;4.00;99.90
15821;DHT22;8011;51.650;7.240;2022-11-20T14:12:20;4.00;99.90
15821;DHT22;8011;51.650;7.240;2022-11-20T14:14:52;4.00;99.90
15821;DHT22;8011;51.650;7.240;2022-11-20T14:17:34;4.00;99.90
15821;DHT22;8011;51.650;7.240;2022-11-20T14:20:07;4.00;99.90
15821;DHT22;8011;51.650;7.240;2022-11-20T14:22:37;4.00;99.90
15821;DHT22;8011;51.650;7.240;2022-11-20T14:27:41;4.00;99.90
15821;DHT22;8011;51.650;7.240;2022-11-20T14:30:38;4.00;99.90
15821;DHT22;8011;51.650;7.240;2022-11-20T14:33:04;3.90;99.90
15821;DHT22;8011;51.650;7.240;2022-11-20T14:35:35;3.90;99.90
15821;DHT22;8011;51.650;7.240;2022-11-20T14:38:02;3.90;99.90
15821;DHT22;8011;51.650;7.240;2022-11-20T14:40:33;3.80;99.90
15821;DHT22;8011;51.650;7.240;2022-11-20T14:43:20;3.90;99.90
15821;DHT22;8011;51.650;7.240;2022-11-20T14:45:54;3.90;99.90
15821;DHT22;8011;51.650;7.240;2022-11-20T14:48:43;3.90;99.90
15821;DHT22;8011;51.650;7.240;2022-11-20T14:51:11;3.80;99.90
15821;DHT22;8011;51.650;7.240;2022-11-20T14:53:37;3.80;99.90
15821;DHT22;8011;51.650;7.240;2022-11-20T14:56:03;3.80;99.90
15821;DHT22;8011;51.650;7.240;2022-11-20T14:58:31;3.80;99.90
15821;DHT22;8011;51.650;7.240;2022-11-20T15:01:06;3.80;99.90
15821;DHT22;8011;51.650;7.240;2022-11-20T15:03:37;3.70;99.90
15821;DHT22;8011;51.650;7.240;2022-11-20T15:06:05;3.70;99.90
15821;DHT22;8011;51.650;7.240;2022-11-20T15:08:30;3.70;99.90
15821;DHT22;8011;51.650;7.240;2022-11-20T15:10:56;3.70;99.90
15821;DHT22;8011;51.650;7.240;2022-11-20T15:13:36;3.70;99.90
15821;DHT22;8011;51.650;7.240;2022-11-20T15:16:04;3.70;99.90
15821;DHT22;8011;51.650;7.240;2022-11-20T15:18:39;3.70;99.90
15821;DHT22;8011;51.650;7.240;2022-11-20T15:21:12;3.60;99.90
15821;DHT22;8011;51.650;7.240;2022-11-20T15:23:38;3.60;99.90
15821;DHT22;8011;51.650;7.240;2022-11-20T15:26:08;3.60;99.90
15821;DHT22;8011;51.650;7.240;2022-11-20T15:31:03;3.60;99.90
15821;DHT22;8011;51.650;7.240;2022-11-20T15:33:30;3.60;99.90
15821;DHT22;8011;51.650;7.240;2022-11-20T15:35:57;3.60;99.90
15821;DHT22;8011;51.650;7.240;2022-11-20T15:38:22;3.60;99.90
15821;DHT22;8011;51.650;7.240;2022-11-20T15:40:48;3.60;99.90
15821;DHT22;8011;51.650;7.240;2022-11-20T15:43:14;3.70;99.90
15821;DHT22;8011;51.650;7.240;2022-11-20T15:48:40;3.70;99.90
15821;DHT22;8011;51.650;7.240;2022-11-20T15:53:39;3.60;99.90
15821;DHT22;8011;51.650;7.240;2022-11-20T15:56:12;3.60;99.90
15821;DHT22;8011;51.650;7.240;2022-11-20T15:58:39;3.60;99.90
15821;DHT22;8011;51.650;7.240;2022-11-20T16:01:04;3.50;99.90
15821;DHT22;8011;51.650;7.240;2022-11-20T16:03:30;3.50;99.90
15821;DHT22;8011;51.650;7.240;2022-11-20T16:05:56;3.50;99.90
15821;DHT22;8011;51.650;7.240;2022-11-20T16:08:22;3.40;99.90
15821;DHT22;8011;51.650;7.240;2022-11-20T16:10:47;3.40;99.90
15821;DHT22;8011;51.650;7.240;2022-11-20T16:13:15;3.40;99.90
15821;DHT22;8011;51.650;7.240;2022-11-20T16:16:05;3.40;99.90
15821;DHT22;8011;51.650;7.240;2022-11-20T16:18:32;3.40;99.90
15821;DHT22;8011;51.650;7.240;2022-11-20T16:20:58;3.30;99.90
15821;DHT22;8011;51.650;7.240;2022-11-20T16:23:26;3.30;99.90
15821;DHT22;8011;51.650;7.240;2022-11-20T16:25:52;3.30;99.90
15821;DHT22;8011;51.650;7.240;2022-11-20T16:28:18;3.30;99.90
15821;DHT22;8011;51.650;7.240;2022-11-20T16:30:44;3.30;99.90
15821;DHT22;8011;51.650;7.240;2022-11-20T16:33:15;3.30;99.90
15821;DHT22;8011;51.650;7.240;2022-11-20T16:35:41;3.20;99.90
15821;DHT22;8011;51.650;7.240;2022-11-20T16:38:07;3.30;99.90
15821;DHT22;8011;51.650;7.240;2022-11-20T16:40:33;3.30;99.90
15821;DHT22;8011;51.650;7.240;2022-11-20T16:43:07;3.30;99.90
15821;DHT22;8011;51.650;7.240;2022-11-20T16:45:33;3.30;99.90
15821;DHT22;8011;51.650;7.240;2022-11-20T16:47:59;3.30;99.90
15821;DHT22;8011;51.650;7.240;2022-11-20T16:50:24;3.40;99.90
15821;DHT22;8011;51.650;7.240;2022-11-20T16:52:50;3.40;99.90
15821;DHT22;8011;51.650;7.240;2022-11-20T16:55:16;3.40;99.90
15821;DHT22;8011;51.650;7.240;2022-11-20T16:57:41;3.40;99.90
15821;DHT22;8011;51.650;7.240;2022-11-20T17:00:08;3.40;99.90
15821;DHT22;8011;51.650;7.240;2022-11-20T17:02:33;3.30;99.90
15821;DHT22;8011;51.650;7.240;2022-11-20T17:04:59;3.40;99.90
15821;DHT22;8011;51.650;7.240;2022-11-20T17:07:25;3.40;99.90
15821;DHT22;8011;51.650;7.240;2022-11-20T17:09:50;3.40;99.90
15821;DHT22;8011;51.650;7.240;2022-11-20T17:12:16;3.40;99.90
15821;DHT22;8011;51.650;7.240;2022-11-20T17:14:42;3.50;99.90
15821;DHT22;8011;51.650;7.240;2022-11-20T17:17:07;3.40;99.90
15821;DHT22;8011;51.650;7.240;2022-11-20T17:19:33;3.40;99.90
15821;DHT22;8011;51.650;7.240;2022-11-20T17:21:59;3.40;99.90
15821;DHT22;8011;51.650;7.240;2022-11-20T17:24:25;3.40;99.90
15821;DHT22;8011;51.650;7.240;2022-11-20T17:26:51;3.40;99.90
15821;DHT22;8011;51.650;7.240;2022-11-20T17:29:18;3.40;99.90
15821;DHT22;8011;51.650;7.240;2022-11-20T17:31:48;3.40;99.90
15821;DHT22;8011;51.650;7.240;2022-11-20T17:34:15;3.40;99.90
15821;DHT22;8011;51.650;7.240;2022-11-20T17:36:42;3.40;99.90
15821;DHT22;8011;51.650;7.240;2022-11-20T17:39:10;3.40;99.90
15821;DHT22;8011;51.650;7.240;2022-11-20T17:41:37;3.30;99.90
15821;DHT22;8011;51.650;7.240;2022-11-20T17:44:02;3.30;99.90
15821;DHT22;8011;51.650;7.240;2022-11-20T17:46:32;3.30;99.90
15821;DHT22;8011;51.650;7.240;2022-11-20T17:48:59;3.30;99.90
15821;DHT22;8011;51.650;7.240;2022-11-20T17:51:27;3.30;99.90
15821;DHT22;8011;51.650;7.240;2022-11-20T17:53:55;3.30;99.90
15821;DHT22;8011;51.650;7.240;2022-11-20T17:56:22;3.30;99.90
15821;DHT22;8011;51.650;7.240;2022-11-20T17:59:11;3.30;99.90
15821;DHT22;8011;51.650;7.240;2022-11-20T18:01:37;3.30;99.90
15821;DHT22;8011;51.650;7.240;2022-11-20T18:04:03;3.30;99.90
15821;DHT22;8011;51.650;7.240;2022-11-20T18:06:30;3.30;99.90
15821;DHT22;8011;51.650;7.240;2022-11-20T18:09:00;3.30;99.90
15821;DHT22;8011;51.650;7.240;2022-11-20T18:11:30;3.30;99.90
15821;DHT22;8011;51.650;7.240;2022-11-20T18:14:03;3.20;99.90
15821;DHT22;8011;51.650;7.240;2022-11-20T18:16:50;3.20;99.90
15821;DHT22;8011;51.650;7.240;2022-11-20T18:19:19;3.20;99.90
15821;DHT22;8011;51.650;7.240;2022-11-20T18:21:45;3.20;99.90
15821;DHT22;8011;51.650;7.240;2022-11-20T18:24:11;3.10;99.90
15821;DHT22;8011;51.650;7.240;2022-11-20T18:26:37;3.10;99.90
15821;DHT22;8011;51.650;7.240;2022-11-20T18:29:04;3.10;99.90
15821;DHT22;8011;51.650;7.240;2022-11-20T18:31:30;3.10;99.90
15821;DHT22;8011;51.650;7.240;2022-11-20T18:33:56;3.10;99.90
15821;DHT22;8011;51.650;7.240;2022-11-20T18:36:25;3.10;99.90
15821;DHT22;8011;51.650;7.240;2022-11-20T18:38:54;3.10;99.90
15821;DHT22;8011;51.650;7.240;2022-11-20T18:41:25;3.20;99.90
15821;DHT22;8011;51.650;7.240;2022-11-20T18:44:15;3.10;99.90
15821;DHT22;8011;51.650;7.240;2022-11-20T18:47:00;3.10;99.90
15821;DHT22;8011;51.650;7.240;2022-11-20T18:49:26;3.10;99.90
15821;DHT22;8011;51.650;7.240;2022-11-20T18:51:52;3.10;99.90
15821;DHT22;8011;51.650;7.240;2022-11-20T18:54:18;3.10;99.90
15821;DHT22;8011;51.650;7.240;2022-11-20T18:56:44;3.20;99.90
15821;DHT22;8011;51.650;7.240;2022-11-20T18:59:10;3.10;99.90
15821;DHT22;8011;51.650;7.240;2022-11-20T19:01:37;3.20;99.90
15821;DHT22;8011;51.650;7.240;2022-11-20T19:04:07;3.10;99.90
15821;DHT22;8011;51.650;7.240;2022-11-20T19:06:35;3.10;99.90
15821;DHT22;8011;51.650;7.240;2022-11-20T19:09:03;3.10;99.90
15821;DHT22;8011;51.650;7.240;2022-11-20T19:11:29;3.20;99.90
15821;DHT22;8011;51.650;7.240;2022-11-20T19:13:55;3.20;99.90
15821;DHT22;8011;51.650;7.240;2022-11-20T19:16:21;3.30;99.90
15821;DHT22;8011;51.650;7.240;2022-11-20T19:18:47;3.40;99.90
15821;DHT22;8011;51.650;7.240;2022-11-20T19:21:21;3.30;99.90
15821;DHT22;8011;51.650;7.240;2022-11-20T19:23:48;3.30;99.90
15821;DHT22;8011;51.650;7.240;2022-11-20T19:26:14;3.30;99.90
15821;DHT22;8011;51.650;7.240;2022-11-20T19:28:40;3.30;99.90
15821;DHT22;8011;51.650;7.240;2022-11-20T19:31:40;3.40;99.90
15821;DHT22;8011;51.650;7.240;2022-11-20T19:34:01;3.40;99.90
15821;DHT22;8011;51.650;7.240;2022-11-20T19:36:29;3.40;99.90
15821;DHT22;8011;51.650;7.240;2022-11-20T19:38:56;3.40;99.90
15821;DHT22;8011;51.650;7.240;2022-11-20T19:41:24;3.40;99.90
15821;DHT22;8011;51.650;7.240;2022-11-20T19:43:55;3.40;99.90
15821;DHT22;8011;51.650;7.240;2022-11-20T19:46:20;3.50;99.90
15821;DHT22;8011;51.650;7.240;2022-11-20T19:48:46;3.50;99.90
15821;DHT22;8011;51.650;7.240;2022-11-20T19:51:17;3.50;99.90
15821;DHT22;8011;51.650;7.240;2022-11-20T19:53:43;3.50;99.90
15821;DHT22;8011;51.650;7.240;2022-11-20T19:56:10;3.50;99.90
15821;DHT22;8011;51.650;7.240;2022-11-20T19:58:35;3.60;99.90
15821;DHT22;8011;51.650;7.240;2022-11-20T20:01:10;3.60;99.90
15821;DHT22;8011;51.650;7.240;2022-11-20T20:03:37;3.60;99.90
15821;DHT22;8011;51.650;7.240;2022-11-20T20:06:04;3.60;99.90
15821;DHT22;8011;51.650;7.240;2022-11-20T20:08:31;3.60;99.90
15821;DHT22;8011;51.650;7.240;2022-11-20T20:10:57;3.60;99.90
15821;DHT22;8011;51.650;7.240;2022-11-20T20:13:23;3.60;99.90
15821;DHT22;8011;51.650;7.240;2022-11-20T20:15:49;3.60;99.90
15821;DHT22;8011;51.650;7.240;2022-11-20T20:18:15;3.60;99.90
15821;DHT22;8011;51.650;7.240;2022-11-20T20:20:40;3.60;99.90
15821;DHT22;8011;51.650;7.240;2022-11-20T20:23:07;3.60;99.90
15821;DHT22;8011;51.650;7.240;2022-11-20T20:25:35;3.60;99.90
15821;DHT22;8011;51.650;7.240;2022-11-20T20:28:01;3.60;99.90
15821;DHT22;8011;51.650;7.240;2022-11-20T20:30:27;3.60;99.90
15821;DHT22;8011;51.650;7.240;2022-11-20T20:32:53;3.70;99.90
15821;DHT22;8011;51.650;7.240;2022-11-20T20:35:18;3.70;99.90
15821;DHT22;8011;51.650;7.240;2022-11-20T20:37:44;3.70;99.90
15821;DHT22;8011;51.650;7.240;2022-11-20T20:40:10;3.70;99.90
15821;DHT22;8011;51.650;7.240;2022-11-20T20:42:35;3.80;99.90
15821;DHT22;8011;51.650;7.240;2022-11-20T20:45:01;3.70;99.90
15821;DHT22;8011;51.650;7.240;2022-11-20T20:47:34;3.70;99.90
15821;DHT22;8011;51.650;7.240;2022-11-20T20:50:04;3.70;99.90
15821;DHT22;8011;51.650;7.240;2022-11-20T20:52:30;3.70;99.90
15821;DHT22;8011;51.650;7.240;2022-11-20T20:54:56;3.70;99.90
15821;DHT22;8011;51.650;7.240;2022-11-20T20:57:22;3.60;99.90
15821;DHT22;8011;51.650;7.240;2022-11-20T20:59:49;3.60;99.90